Time;durP1;ratioP1;P1;durP2;ratioP2;P2;SDS_P1;SDS_P2;PMS_P1;PMS_P2;Temp;Humidity;BMP_temperature;BMP_pressure;BME280_temperature;BME280_humidity;BME280_pressure;Samples;Min_cycle;Max_cycle;Signal;HPM_P1;HPM_P2
2023/01/05 00:01:39;;;;;;;0.20;0.20;;;;;;;9.94;100.00;101561.81;5022347;28;20458;-76
2023/01/05 00:04:05;;;;;;;0.10;0.10;;;;;;;9.94;100.00;101569.88;5018893;28;20033;-76
2023/01/05 00:06:30;;;;;;;0.20;0.20;;;;;;;10.06;100.00;101569.09;5023277;28;20471;-74
2023/01/05 00:08:57;;;;;;;0.20;0.20;;;;;;;9.80;100.00;101554.69;5020932;28;20443;-75
2023/01/05 00:22:29;;;;;;;0.20;0.20;;;;;;;9.87;100.00;101572.09;5016792;28;20040;-75
2023/01/05 00:25:05;;;;;;;0.13;0.13;;;;;;;9.56;100.00;101531.09;5015510;28;20028;-74
2023/01/05 00:27:31;;;;;;;0.10;0.10;;;;;;;9.75;100.00;101558.50;5014765;28;20115;-75
2023/01/05 00:29:57;;;;;;;0.20;0.20;;;;;;;9.74;100.00;101564.81;4993765;28;20137;-75
2023/01/05 00:32:23;;;;;;;0.10;0.10;;;;;;;9.96;100.00;101562.59;5014858;28;20502;-79
2023/01/05 00:34:49;;;;;;;0.10;0.10;;;;;;;9.79;100.00;101553.81;5014743;28;20025;-75
2023/01/05 00:37:15;;;;;;;0.10;0.10;;;;;;;9.84;100.00;101553.50;4997088;28;20033;-77
2023/01/05 00:39:40;;;;;;;0.10;0.10;;;;;;;10.03;100.00;101567.50;5012482;28;20514;-75
2023/01/05 00:42:05;;;;;;;0.20;0.20;;;;;;;9.96;100.00;101567.94;5021282;28;20095;-75
2023/01/05 00:44:31;;;;;;;0.20;0.20;;;;;;;9.86;100.00;101565.88;5018209;28;20095;-76
2023/01/05 00:46:56;;;;;;;0.10;0.10;;;;;;;9.79;100.00;101547.59;5017521;28;20025;-77
2023/01/05 00:49:21;;;;;;;0.20;0.20;;;;;;;9.56;100.00;101533.78;5021516;28;20029;-76
2023/01/05 00:51:47;;;;;;;0.10;0.10;;;;;;;9.66;100.00;101548.34;4998466;28;20461;-75
2023/01/05 00:54:12;;;;;;;0.10;0.10;;;;;;;9.71;100.00;101566.81;5014944;28;20511;-76
2023/01/05 00:56:37;;;;;;;0.20;0.20;;;;;;;9.39;100.00;101529.50;5009122;28;20451;-77
2023/01/05 00:59:03;;;;;;;0.13;0.13;;;;;;;9.59;100.00;101573.81;5011485;28;20439;-76
2023/01/05 01:01:28;;;;;;;0.10;0.10;;;;;;;9.49;100.00;101573.53;5020891;28;20460;-76
2023/01/05 01:03:54;;;;;;;0.13;0.13;;;;;;;9.47;100.00;101537.91;5016234;28;20033;-74
2023/01/05 01:06:20;;;;;;;0.10;0.10;;;;;;;9.70;100.00;101567.78;5002267;28;20375;-77
2023/01/05 01:08:45;;;;;;;0.10;0.10;;;;;;;9.20;100.00;101519.03;5015952;28;20489;-77
2023/01/05 01:11:10;;;;;;;0.20;0.20;;;;;;;9.42;100.00;101561.44;5013684;28;20032;-79
2023/01/05 01:13:37;;;;;;;0.10;0.10;;;;;;;9.40;100.00;101542.78;5014210;28;20418;-77
2023/01/05 01:16:11;;;;;;;0.10;0.10;;;;;;;9.38;100.00;101581.38;5014843;28;20633;-76
2023/01/05 01:18:36;;;;;;;0.20;0.20;;;;;;;9.09;100.00;101539.31;5014558;28;20487;-78
2023/01/05 01:21:02;;;;;;;0.20;0.20;;;;;;;9.39;100.00;101593.81;5009602;28;20064;-74
2023/01/05 01:23:27;;;;;;;0.17;0.17;;;;;;;9.32;100.00;101569.19;5014996;28;20037;-75
2023/01/05 01:25:53;;;;;;;0.20;0.20;;;;;;;9.22;100.00;101565.38;5024108;28;20141;-74
2023/01/05 01:28:18;;;;;;;0.10;0.10;;;;;;;9.28;100.00;101592.66;5016861;28;20633;-78
2023/01/05 01:30:43;;;;;;;0.20;0.20;;;;;;;9.43;100.00;101588.19;5016506;28;20036;-75
2023/01/05 01:33:09;;;;;;;0.20;0.20;;;;;;;9.33;100.00;101599.53;5016740;28;20036;-76
2023/01/05 01:35:37;;;;;;;0.15;0.15;;;;;;;9.19;100.00;101593.19;5013754;28;20045;-75
2023/01/05 01:38:03;;;;;;;0.20;0.20;;;;;;;9.11;100.00;101571.38;5015946;28;20036;-77
2023/01/05 01:40:28;;;;;;;0.20;0.20;;;;;;;9.40;100.00;101622.34;5016069;28;20030;-74
2023/01/05 01:42:53;;;;;;;0.20;0.20;;;;;;;9.17;100.00;101588.88;5016335;28;20029;-74
2023/01/05 01:45:21;;;;;;;0.20;0.20;;;;;;;9.51;100.00;101630.59;5018755;28;20025;-75
2023/01/05 01:47:50;;;;;;;0.20;0.20;;;;;;;9.55;100.00;101631.25;5018363;28;20349;-75
2023/01/05 01:50:30;;;;;;;0.20;0.20;;;;;;;9.65;100.00;101629.75;5019398;28;20259;-76
2023/01/05 01:53:00;;;;;;;0.10;0.10;;;;;;;9.60;100.00;101623.78;5021093;28;20112;-75
2023/01/05 01:55:27;;;;;;;0.20;0.20;;;;;;;9.48;100.00;101616.53;5013621;28;20033;-75
2023/01/05 01:57:52;;;;;;;0.10;0.10;;;;;;;9.64;100.00;101638.75;5019497;28;20029;-76
2023/01/05 02:00:18;;;;;;;0.10;0.10;;;;;;;9.64;100.00;101630.69;5015095;28;20471;-76
2023/01/05 02:02:48;;;;;;;0.10;0.10;;;;;;;9.55;100.00;101626.78;5019194;28;20029;-76
2023/01/05 02:05:15;;;;;;;0.20;0.20;;;;;;;9.45;100.00;101604.16;5020393;28;20071;-77
2023/01/05 02:07:45;;;;;;;0.15;0.15;;;;;;;9.62;100.00;101643.34;5001154;28;20283;-74
2023/01/05 02:10:10;;;;;;;0.10;0.10;;;;;;;9.65;100.00;101636.94;5014043;28;20032;-76
2023/01/05 02:13:00;;;;;;;0.20;0.20;;;;;;;9.66;100.00;101638.66;5000412;28;20037;-75
2023/01/05 02:16:15;;;;;;;0.20;0.20;;;;;;;9.55;100.00;101613.38;4998939;28;20033;-75
2023/01/05 02:19:02;;;;;;;0.20;0.20;;;;;;;9.60;100.00;101634.53;5017708;28;20044;-75
2023/01/05 02:21:36;;;;;;;0.10;0.10;;;;;;;9.75;100.00;101643.44;5000392;22;20046;-75
2023/01/05 02:24:04;;;;;;;0.10;0.10;;;;;;;9.68;100.00;101647.44;4991066;28;20041;-77
2023/01/05 02:26:52;;;;;;;0.10;0.10;;;;;;;9.58;100.00;101620.34;4999329;28;20491;-75
2023/01/05 02:29:51;;;;;;;0.20;0.20;;;;;;;9.78;100.00;101650.47;4994996;28;20037;-75
2023/01/05 02:32:22;;;;;;;0.10;0.10;;;;;;;9.67;100.00;101646.59;4986106;28;20042;-78
2023/01/05 02:34:59;;;;;;;0.20;0.20;;;;;;;9.71;100.00;101641.91;4998503;28;20034;-76
2023/01/05 02:37:30;;;;;;;0.20;0.20;;;;;;;9.44;100.00;101599.75;5002138;28;20061;-76
2023/01/05 02:39:59;;;;;;;0.10;0.10;;;;;;;9.78;100.00;101645.94;4980332;28;20497;-75
2023/01/05 02:42:26;;;;;;;0.20;0.20;;;;;;;9.62;100.00;101616.53;4970737;28;20060;-74
2023/01/05 02:44:52;;;;;;;0.20;0.20;;;;;;;9.72;100.00;101638.25;4989798;28;20026;-75
2023/01/05 02:47:23;;;;;;;0.20;0.20;;;;;;;9.65;100.00;101640.47;4970996;28;20757;-75
2023/01/05 02:49:49;;;;;;;0.20;0.20;;;;;;;9.72;100.00;101647.19;4986342;28;20039;-74
2023/01/05 02:52:14;;;;;;;0.13;0.13;;;;;;;9.64;100.00;101628.03;4978325;28;20033;-75
2023/01/05 02:54:50;;;;;;;0.20;0.20;;;;;;;9.64;100.00;101637.91;4986699;28;20030;-75
2023/01/05 02:57:19;;;;;;;0.20;0.20;;;;;;;9.51;100.00;101619.03;4989884;28;20247;-78
2023/01/05 02:59:52;;;;;;;0.10;0.10;;;;;;;9.63;100.00;101631.66;4989446;28;20026;-77
2023/01/05 03:02:21;;;;;;;0.10;0.10;;;;;;;9.69;100.00;101649.19;4983779;28;20072;-76
2023/01/05 03:04:50;;;;;;;0.20;0.20;;;;;;;9.70;100.00;101650.91;4993956;28;20554;-75
2023/01/05 03:07:18;;;;;;;0.10;0.10;;;;;;;9.72;100.00;101631.09;4987026;28;20026;-77
2023/01/05 03:09:44;;;;;;;0.10;0.10;;;;;;;9.57;100.00;101638.25;4972236;28;20026;-75
2023/01/05 03:15:25;;;;;;;0.10;0.10;;;;;;;9.68;100.00;101653.69;4979010;28;20053;-76
2023/01/05 03:17:56;;;;;;;0.10;0.10;;;;;;;9.75;100.00;101678.31;5005171;28;20030;-77
2023/01/05 03:20:27;;;;;;;0.20;0.20;;;;;;;9.64;100.00;101635.22;4983952;28;20499;-75
2023/01/05 03:37:00;;;;;;;0.20;0.20;;;;;;;9.51;100.00;101625.22;4988853;28;20116;-75
2023/01/05 03:39:26;;;;;;;0.20;0.20;;;;;;;9.77;100.00;101657.63;4988274;28;20030;-78
2023/01/05 03:41:52;;;;;;;0.15;0.15;;;;;;;9.58;100.00;101633.75;4973417;28;20431;-77
2023/01/05 03:44:18;;;;;;;0.10;0.10;;;;;;;9.72;100.00;101665.97;4985407;28;20088;-76
2023/01/05 03:46:44;;;;;;;0.10;0.10;;;;;;;9.63;100.00;101625.44;4987065;28;20073;-77
2023/01/05 03:49:09;;;;;;;0.20;0.20;;;;;;;9.63;100.00;101637.03;4961306;28;20053;-78
2023/01/05 03:51:34;;;;;;;0.10;0.10;;;;;;;9.79;100.00;101665.59;4985987;28;20258;-78
2023/01/05 03:54:00;;;;;;;0.10;0.10;;;;;;;9.70;100.00;101627.66;4973961;28;20104;-76
2023/01/05 03:56:25;;;;;;;0.20;0.20;;;;;;;9.78;100.00;101631.69;4983534;28;20062;-75
2023/01/05 03:58:50;;;;;;;0.20;0.20;;;;;;;9.79;100.00;101652.19;4987856;28;20026;-77
2023/01/05 04:01:16;;;;;;;0.20;0.20;;;;;;;9.90;100.00;101647.88;4987447;28;20381;-78
2023/01/05 04:03:41;;;;;;;0.17;0.17;;;;;;;9.80;100.00;101633.31;4984344;28;20479;-78
2023/01/05 04:06:06;;;;;;;0.17;0.17;;;;;;;9.88;100.00;101654.28;4991063;28;20116;-75
2023/01/05 04:08:32;;;;;;;0.10;0.10;;;;;;;9.58;100.00;101606.94;4987512;28;20870;-75
2023/01/05 04:11:09;;;;;;;0.20;0.20;;;;;;;9.68;100.00;101648.34;4991122;28;20484;-77
2023/01/05 04:13:34;;;;;;;0.10;0.10;;;;;;;9.79;100.00;101654.88;4985368;28;20100;-78
2023/01/05 04:16:00;;;;;;;0.10;0.10;;;;;;;9.73;100.00;101651.59;4988740;28;20048;-78
2023/01/05 04:18:25;;;;;;;0.10;0.10;;;;;;;9.33;100.00;101600.41;4986377;28;20036;-78
2023/01/05 04:20:50;;;;;;;0.20;0.20;;;;;;;9.66;100.00;101636.84;4985004;28;20399;-78
2023/01/05 04:23:15;;;;;;;0.20;0.20;;;;;;;9.72;100.00;101651.69;4968794;28;20559;-77
2023/01/05 04:25:41;;;;;;;0.10;0.10;;;;;;;9.64;100.00;101627.16;4983560;28;20061;-76
2023/01/05 04:28:06;;;;;;;0.20;0.20;;;;;;;9.88;100.00;101671.25;4981683;28;20115;-76
2023/01/05 04:30:31;;;;;;;0.20;0.20;;;;;;;9.65;100.00;101647.66;4978410;28;20121;-78
2023/01/05 04:32:57;;;;;;;0.17;0.17;;;;;;;9.66;100.00;101644.03;4982435;28;20064;-76
2023/01/05 04:35:22;;;;;;;0.30;0.30;;;;;;;9.58;100.00;101633.75;4985900;28;20491;-78
2023/01/05 04:37:47;;;;;;;0.20;0.20;;;;;;;9.77;100.00;101644.22;4967547;28;20096;-78
2023/01/05 04:40:13;;;;;;;0.10;0.10;;;;;;;9.78;100.00;101629.00;4983395;28;20034;-78
2023/01/05 04:42:38;;;;;;;0.10;0.10;;;;;;;9.73;100.00;101637.31;4985968;28;20034;-78
2023/01/05 04:45:04;;;;;;;0.10;0.10;;;;;;;9.72;100.00;101641.84;4983546;28;20033;-78
2023/01/05 04:47:29;;;;;;;0.10;0.10;;;;;;;9.84;100.00;101655.41;4984097;28;20034;-76
2023/01/05 04:49:54;;;;;;;0.10;0.10;;;;;;;9.75;100.00;101643.44;4985275;28;20076;-78
2023/01/05 04:52:19;;;;;;;0.20;0.20;;;;;;;9.61;100.00;101636.25;4964120;28;20037;-77
2023/01/05 04:54:45;;;;;;;0.20;0.20;;;;;;;9.68;100.00;101645.66;4981932;28;20057;-78
2023/01/05 04:57:10;;;;;;;0.10;0.10;;;;;;;9.73;100.00;101659.66;4986253;28;20361;-79
2023/01/05 04:59:35;;;;;;;0.20;0.20;;;;;;;9.73;100.00;101669.50;4967332;28;20026;-78
2023/01/05 05:02:01;;;;;;;0.20;0.20;;;;;;;9.69;100.00;101671.50;4965800;28;20038;-76
2023/01/05 05:04:26;;;;;;;0.10;0.10;;;;;;;9.60;100.00;101659.53;4989657;28;20105;-76
2023/01/05 05:06:51;;;;;;;0.10;0.10;;;;;;;9.68;100.00;101650.13;4967938;28;20076;-76
2023/01/05 05:09:17;;;;;;;0.10;0.10;;;;;;;9.88;100.00;101691.84;4971255;28;20104;-78
2023/01/05 05:11:42;;;;;;;0.15;0.15;;;;;;;9.74;100.00;101673.91;4985893;28;20502;-76
2023/01/05 05:14:07;;;;;;;0.17;0.17;;;;;;;9.74;100.00;101681.94;4983280;28;20034;-77
2023/01/05 05:16:33;;;;;;;0.25;0.25;;;;;;;9.84;100.00;101693.84;4986176;28;20407;-76
2023/01/05 05:18:58;;;;;;;0.20;0.20;;;;;;;9.65;100.00;101679.84;4962508;28;20121;-77
2023/01/05 05:21:24;;;;;;;0.10;0.10;;;;;;;9.71;100.00;101701.78;4965322;28;20088;-78
2023/01/05 05:23:49;;;;;;;0.20;0.20;;;;;;;9.81;100.00;101679.75;4968463;28;20022;-76
2023/01/05 05:26:14;;;;;;;0.20;0.20;;;;;;;9.69;100.00;101678.69;4981097;28;20035;-78
2023/01/05 05:28:40;;;;;;;0.20;0.20;;;;;;;9.90;100.00;101706.91;4979054;28;20084;-78
2023/01/05 05:31:05;;;;;;;0.20;0.20;;;;;;;9.88;100.00;101697.19;4983560;28;20048;-77
2023/01/05 05:33:30;;;;;;;0.20;0.20;;;;;;;9.68;100.00;101691.25;4982530;28;20113;-78
2023/01/05 05:35:56;;;;;;;0.20;0.20;;;;;;;9.73;100.00;101683.78;4976840;28;20072;-76
2023/01/05 05:38:21;;;;;;;0.20;0.20;;;;;;;9.82;100.00;101703.81;4975686;28;20129;-79
2023/01/05 05:40:49;;;;;;;0.20;0.20;;;;;;;9.89;100.00;101709.66;4961380;28;20022;-78
2023/01/05 05:43:15;;;;;;;0.13;0.13;;;;;;;9.91;100.00;101729.19;4966135;28;20576;-77
2023/01/05 05:45:41;;;;;;;0.15;0.15;;;;;;;9.76;100.00;101712.22;4983162;28;20030;-79
2023/01/05 05:48:06;;;;;;;0.10;0.10;;;;;;;9.71;100.00;101698.22;4965410;28;20452;-79
2023/01/05 05:50:32;;;;;;;0.10;0.10;;;;;;;9.91;100.00;101718.47;4964881;28;20034;-79
2023/01/05 05:52:57;;;;;;;0.20;0.20;;;;;;;9.68;100.00;101703.75;4984138;28;20811;-78
2023/01/05 05:55:22;;;;;;;0.20;0.20;;;;;;;9.64;100.00;101704.94;4965240;28;20055;-81
2023/01/05 05:57:48;;;;;;;0.20;0.20;;;;;;;9.90;100.00;101720.31;4985960;28;20605;-78
2023/01/05 06:00:14;;;;;;;0.10;0.10;;;;;;;9.98;100.00;101743.97;4973682;28;20153;-78
2023/01/05 06:02:39;;;;;;;0.10;0.10;;;;;;;9.87;100.00;101741.06;4962669;28;20035;-77
2023/01/05 06:05:05;;;;;;;0.20;0.20;;;;;;;9.65;100.00;101714.69;4976995;28;20033;-77
2023/01/05 06:07:30;;;;;;;0.10;0.10;;;;;;;9.62;100.00;101720.25;4966273;28;20034;-77
2023/01/05 06:09:56;;;;;;;0.20;0.20;;;;;;;9.82;100.00;101743.16;4967228;28;20343;-79
2023/01/05 06:12:21;;;;;;;0.17;0.17;;;;;;;9.64;100.00;101748.69;4971525;28;20555;-78
2023/01/05 06:14:46;;;;;;;0.20;0.20;;;;;;;9.63;100.00;101738.06;4966027;28;20557;-77
2023/01/05 06:17:12;;;;;;;0.13;0.13;;;;;;;9.76;100.00;101744.41;4983342;28;20145;-76
2023/01/05 06:19:37;;;;;;;0.10;0.10;;;;;;;9.73;100.00;101748.13;4976663;28;20034;-77
2023/01/05 06:22:02;;;;;;;0.10;0.10;;;;;;;9.57;100.00;101744.63;4983043;28;20042;-78
2023/01/05 06:24:27;;;;;;;0.20;0.20;;;;;;;9.71;100.00;101751.84;4968114;28;20065;-78
2023/01/05 06:26:53;;;;;;;0.20;0.20;;;;;;;9.70;100.00;101764.41;4967427;28;20030;-78
2023/01/05 06:29:18;;;;;;;0.15;0.15;;;;;;;9.68;100.00;101758.28;4977711;28;20077;-78
2023/01/05 06:31:43;;;;;;;0.17;0.17;;;;;;;9.75;100.00;101758.75;4986358;28;20040;-78
2023/01/05 06:34:09;;;;;;;0.20;0.20;;;;;;;9.65;100.00;101747.72;4954796;28;20031;-78
2023/01/05 06:36:34;;;;;;;0.15;0.15;;;;;;;9.73;100.00;101758.00;4975945;28;20034;-76
2023/01/05 06:38:59;;;;;;;0.15;0.15;;;;;;;9.64;100.00;101742.47;4985338;28;20041;-77
2023/01/05 06:41:25;;;;;;;0.10;0.10;;;;;;;9.75;100.00;101772.16;4983309;28;20397;-76
2023/01/05 06:43:50;;;;;;;0.20;0.20;;;;;;;9.66;100.00;101762.00;4975059;28;20026;-77
2023/01/05 06:46:15;;;;;;;0.10;0.10;;;;;;;9.80;100.00;101780.81;4963928;28;20523;-78
2023/01/05 06:48:41;;;;;;;0.10;0.10;;;;;;;9.59;100.00;101758.81;4964676;28;20035;-78
2023/01/05 06:51:06;;;;;;;0.20;0.20;;;;;;;9.44;100.00;101772.16;4977457;28;20113;-76
2023/01/05 06:53:31;;;;;;;0.20;0.20;;;;;;;9.74;100.00;101799.94;4977125;28;20026;-77
2023/01/05 06:55:57;;;;;;;0.20;0.20;;;;;;;9.65;100.00;101800.50;4991616;28;20511;-77
2023/01/05 06:58:22;;;;;;;0.20;0.20;;;;;;;9.45;100.00;101789.97;4984420;28;20437;-79
2023/01/05 07:00:47;;;;;;;0.20;0.20;;;;;;;9.45;100.00;101803.38;4980227;28;20128;-78
2023/01/05 07:03:13;;;;;;;0.10;0.10;;;;;;;9.50;100.00;101807.63;4983688;28;20038;-77
2023/01/05 07:05:39;;;;;;;0.20;0.20;;;;;;;9.64;100.00;101810.34;4981760;28;20049;-78
2023/01/05 07:08:05;;;;;;;0.20;0.20;;;;;;;9.58;100.00;101803.53;4991447;28;20476;-78
2023/01/05 07:10:30;;;;;;;0.20;0.20;;;;;;;9.33;100.00;101797.88;4981312;28;20038;-77
2023/01/05 07:12:55;;;;;;;0.15;0.15;;;;;;;9.65;100.00;101811.22;4973596;28;20053;-78
2023/01/05 07:15:21;;;;;;;0.10;0.10;;;;;;;9.56;100.00;101807.25;4983808;28;20034;-77
2023/01/05 07:17:46;;;;;;;0.20;0.20;;;;;;;9.57;100.00;101822.38;4982848;28;20026;-77
2023/01/05 07:20:11;;;;;;;0.22;0.22;;;;;;;9.52;100.00;101811.94;4985108;28;20088;-75
2023/01/05 07:22:37;;;;;;;0.20;0.20;;;;;;;9.57;100.00;101799.13;4969376;28;20479;-76
2023/01/05 07:25:02;;;;;;;0.20;0.20;;;;;;;9.64;100.00;101823.75;4981429;28;20402;-78
2023/01/05 07:27:27;;;;;;;0.20;0.20;;;;;;;9.73;100.00;101830.41;4984690;28;20357;-77
2023/01/05 07:29:53;;;;;;;0.20;0.20;;;;;;;9.66;100.00;101829.06;4980731;28;20794;-78
2023/01/05 07:32:18;;;;;;;0.10;0.10;;;;;;;9.68;100.00;101830.69;4975480;28;20820;-77
2023/01/05 07:34:43;;;;;;;0.20;0.20;;;;;;;9.55;100.00;101819.81;4986402;28;20027;-76
2023/01/05 07:37:09;;;;;;;0.17;0.17;;;;;;;9.80;100.00;101847.88;4971459;28;20030;-77
2023/01/05 07:39:35;;;;;;;0.20;0.20;;;;;;;9.74;100.00;101837.50;4966231;28;20396;-76
2023/01/05 07:42:00;;;;;;;0.20;0.20;;;;;;;9.62;100.00;101812.25;4974533;28;20026;-77
2023/01/05 07:44:25;;;;;;;0.20;0.20;;;;;;;9.65;100.00;101822.81;4985242;28;20038;-77
2023/01/05 07:46:51;;;;;;;0.20;0.20;;;;;;;9.70;100.00;101823.41;4987028;28;20030;-79
2023/01/05 07:49:16;;;;;;;0.13;0.13;;;;;;;9.72;100.00;101847.44;4984014;28;20057;-76
2023/01/05 07:51:41;;;;;;;0.20;0.20;;;;;;;9.69;100.00;101851.19;4965408;28;20073;-77
2023/01/05 07:54:07;;;;;;;0.10;0.10;;;;;;;9.53;100.00;101815.50;4965869;28;20041;-78
2023/01/05 07:56:32;;;;;;;0.20;0.20;;;;;;;9.56;100.00;101834.06;4970019;28;20026;-78
2023/01/05 07:58:58;;;;;;;0.10;0.10;;;;;;;9.46;100.00;101841.75;4962055;28;20167;-76
2023/01/05 08:01:23;;;;;;;0.20;0.20;;;;;;;9.41;100.00;101830.44;4975301;28;20514;-76
2023/01/05 08:03:48;;;;;;;0.13;0.13;;;;;;;9.50;100.00;101842.47;4978342;28;20188;-78
2023/01/05 08:06:17;;;;;;;0.17;0.17;;;;;;;9.23;100.00;101821.66;4965863;28;20036;-77
2023/01/05 08:08:42;;;;;;;0.20;0.20;;;;;;;9.56;100.00;101863.53;4981930;28;20053;-76
2023/01/05 08:11:10;;;;;;;0.20;0.20;;;;;;;9.53;100.00;101858.38;4974088;28;20030;-77
2023/01/05 08:16:20;;;;;;;0.10;0.10;;;;;;;9.20;100.00;101838.75;4976305;28;20045;-78
2023/01/05 08:18:45;;;;;;;0.20;0.20;;;;;;;9.48;100.00;101879.22;4980827;28;20038;-77
2023/01/05 08:21:10;;;;;;;0.10;0.10;;;;;;;9.38;100.00;101857.44;4963808;28;20092;-77
2023/01/05 08:23:37;;;;;;;0.20;0.20;;;;;;;9.52;100.00;101883.47;4964465;28;20506;-77
2023/01/05 08:26:10;;;;;;;0.17;0.17;;;;;;;9.51;100.00;101889.78;4983249;28;20484;-76
2023/01/05 08:28:35;;;;;;;0.20;0.20;;;;;;;9.46;100.00;101892.69;4984508;28;20040;-78
2023/01/05 08:31:02;;;;;;;0.20;0.20;;;;;;;9.50;100.00;101878.16;4985494;28;20029;-78
2023/01/05 08:33:28;;;;;;;0.10;0.10;;;;;;;9.56;100.00;101898.41;4980163;28;20026;-78
2023/01/05 08:35:53;;;;;;;0.20;0.20;;;;;;;9.25;100.00;101866.16;4976682;28;20399;-76
2023/01/05 08:38:21;;;;;;;0.20;0.20;;;;;;;9.26;100.00;101850.97;4960746;28;20036;-78
2023/01/05 08:40:46;;;;;;;0.17;0.17;;;;;;;9.64;100.00;101911.41;4980113;28;20096;-77
2023/01/05 08:43:11;;;;;;;0.30;0.30;;;;;;;9.67;100.00;101914.75;4985225;28;20038;-78
2023/01/05 08:45:37;;;;;;;0.20;0.20;;;;;;;9.66;100.00;101915.72;4978059;28;20042;-78
2023/01/05 08:48:02;;;;;;;0.10;0.10;;;;;;;9.58;100.00;101885.78;4981670;28;20069;-78
2023/01/05 08:50:29;;;;;;;0.20;0.20;;;;;;;9.75;100.00;101930.41;4994078;28;20053;-78
2023/01/05 08:52:54;;;;;;;0.10;0.10;;;;;;;9.71;100.00;101919.00;4979843;28;20041;-76
2023/01/05 08:55:20;;;;;;;0.10;0.10;;;;;;;9.58;100.00;101886.66;4977534;28;20038;-77
2023/01/05 08:57:45;;;;;;;0.20;0.20;;;;;;;9.78;100.00;101910.59;4978323;28;20146;-77
2023/01/05 09:00:11;;;;;;;0.20;0.20;;;;;;;9.74;100.00;101897.38;4956193;28;20457;-77
2023/01/05 09:02:36;;;;;;;0.10;0.10;;;;;;;9.78;100.00;101908.78;4964717;28;20065;-76
2023/01/05 09:05:01;;;;;;;0.13;0.13;;;;;;;9.90;100.00;101921.50;4968297;28;20371;-76
2023/01/05 09:07:27;;;;;;;0.15;0.15;;;;;;;9.84;100.00;101918.28;4982213;28;20125;-76
2023/01/05 09:09:52;;;;;;;0.20;0.20;;;;;;;9.88;100.00;101928.75;4967981;28;20488;-77
2023/01/05 09:12:18;;;;;;;0.10;0.10;;;;;;;9.83;100.00;101929.97;4978846;28;20036;-77
2023/01/05 09:14:43;;;;;;;0.15;0.15;;;;;;;10.04;100.00;101949.31;4988392;28;20030;-77
2023/01/05 09:17:08;;;;;;;0.13;0.13;;;;;;;9.92;100.00;101925.91;4978852;28;20820;-77
2023/01/05 09:19:34;;;;;;;0.10;0.10;;;;;;;10.02;100.00;101959.28;4982773;28;20030;-77
2023/01/05 09:21:59;;;;;;;0.20;0.20;;;;;;;9.96;100.00;101932.81;4980390;28;20045;-79
2023/01/05 09:24:25;;;;;;;0.20;0.20;;;;;;;9.90;100.00;101937.59;4967656;28;20092;-77
2023/01/05 09:26:50;;;;;;;0.13;0.13;;;;;;;9.96;100.00;101939.03;4982321;28;20388;-78
2023/01/05 09:29:15;;;;;;;0.20;0.20;;;;;;;9.91;100.00;101941.13;4982635;28;20070;-78
2023/01/05 09:31:41;;;;;;;0.20;0.20;;;;;;;9.96;100.00;101967.69;4982746;28;20050;-76
2023/01/05 09:34:07;;;;;;;0.20;0.20;;;;;;;9.98;100.00;101965.78;4989641;28;20152;-77
2023/01/05 09:36:32;;;;;;;0.10;0.10;;;;;;;9.98;100.00;101966.66;4974104;28;20080;-78
2023/01/05 09:38:58;;;;;;;0.13;0.13;;;;;;;10.15;100.00;101972.84;4981988;28;20320;-78
2023/01/05 09:41:28;;;;;;;0.20;0.20;;;;;;;10.13;100.00;101970.28;4978336;28;20041;-76
2023/01/05 09:43:57;;;;;;;0.20;0.20;;;;;;;9.95;100.00;101965.94;4980473;28;20169;-77
2023/01/05 09:46:27;;;;;;;0.20;0.20;;;;;;;10.04;100.00;101965.44;4976417;28;20465;-77
2023/01/05 09:48:54;;;;;;;0.15;0.15;;;;;;;9.80;100.00;101948.94;4964379;28;20480;-78
2023/01/05 09:51:20;;;;;;;0.20;0.20;;;;;;;9.75;100.00;101967.94;4981624;28;20058;-77
2023/01/05 09:53:45;;;;;;;0.20;0.20;;;;;;;9.73;100.00;101965.38;4975665;28;20540;-78
2023/01/05 09:56:31;;;;;;;0.20;0.20;;;;;;;9.80;100.00;101939.06;4963379;28;20022;-78
2023/01/05 09:59:06;;;;;;;0.15;0.15;;;;;;;10.03;100.00;101996.78;4974629;28;20030;-76
2023/01/05 10:01:33;;;;;;;0.20;0.20;;;;;;;9.82;100.00;101971.16;4976615;28;20488;-76
2023/01/05 10:04:10;;;;;;;0.15;0.15;;;;;;;9.95;100.00;101990.09;4973913;28;20030;-77
2023/01/05 10:06:38;;;;;;;0.20;0.20;;;;;;;10.13;100.00;101996.22;4984779;28;20026;-76
2023/01/05 10:09:05;;;;;;;0.20;0.20;;;;;;;10.14;100.00;102004.22;4976360;28;20097;-75
2023/01/05 10:14:57;;;;;;;0.20;0.20;;;;;;;9.82;100.00;101968.47;4975575;28;20531;-76
2023/01/05 10:17:24;;;;;;;0.20;0.20;;;;;;;10.02;100.00;102012.94;4962961;28;20043;-76
2023/01/05 10:19:50;;;;;;;0.20;0.20;;;;;;;10.03;100.00;102001.25;4944978;28;1087784;-76
2023/01/05 10:22:36;;;;;;;0.20;0.20;;;;;;;10.25;100.00;102008.97;4959987;28;20044;-76
2023/01/05 10:25:14;;;;;;;0.13;0.13;;;;;;;10.12;100.00;101984.66;4987533;28;20038;-77
2023/01/05 10:28:28;;;;;;;0.10;0.10;;;;;;;10.37;100.00;102012.75;4977187;28;20038;-76
2023/01/05 10:31:02;;;;;;;0.20;0.20;;;;;;;10.36;100.00;102008.31;4959025;28;20464;-77
2023/01/05 10:33:47;;;;;;;0.20;0.20;;;;;;;10.38;100.00;102003.75;4978666;28;20036;-76
2023/01/05 10:36:44;;;;;;;0.20;0.20;;;;;;;10.58;100.00;102020.53;4985706;28;20030;-76
2023/01/05 10:39:31;;;;;;;0.20;0.20;;;;;;;10.78;100.00;102006.75;4984645;28;20042;-77
2023/01/05 10:42:03;;;;;;;0.20;0.20;;;;;;;11.06;100.00;102021.22;4965985;28;20026;-75
2023/01/05 10:44:39;;;;;;;0.10;0.10;;;;;;;11.15;100.00;102018.94;4982946;28;20034;-77
2023/01/05 10:47:11;;;;;;;0.10;0.10;;;;;;;11.02;100.00;102016.97;4970522;28;20085;-77
2023/01/05 10:49:37;;;;;;;0.10;0.10;;;;;;;10.88;100.00;102023.19;4979675;28;20033;-77
2023/01/05 10:52:02;;;;;;;0.15;0.15;;;;;;;11.07;100.00;102016.72;4979073;28;20027;-76
2023/01/05 10:54:39;;;;;;;0.10;0.10;;;;;;;11.01;100.00;102012.56;4994214;28;20026;-75
2023/01/05 10:57:29;;;;;;;0.10;0.10;;;;;;;11.11;100.00;102002.13;4983304;28;20038;-77
2023/01/05 10:59:55;;;;;;;0.20;0.20;;;;;;;11.30;100.00;102011.75;4983716;28;20065;-77
2023/01/05 11:02:22;;;;;;;0.20;0.20;;;;;;;11.27;100.00;102004.72;4983386;28;20050;-76
2023/01/05 11:04:48;;;;;;;0.15;0.15;;;;;;;11.73;100.00;102010.84;4987258;28;20493;-77
2023/01/05 11:07:14;;;;;;;0.10;0.10;;;;;;;11.99;100.00;102030.72;4977563;28;20057;-76
2023/01/05 11:09:40;;;;;;;0.10;0.10;;;;;;;11.94;100.00;102009.47;4985725;28;20376;-78
2023/01/05 11:12:16;;;;;;;0.10;0.10;;;;;;;12.15;100.00;102020.69;4976080;28;20472;-77
2023/01/05 11:14:42;;;;;;;0.20;0.20;;;;;;;12.18;100.00;102018.75;4982011;28;20029;-77
2023/01/05 11:17:15;;;;;;;0.10;0.10;;;;;;;11.93;100.00;101990.69;4976434;28;20034;-77
2023/01/05 11:19:43;;;;;;;0.10;0.10;;;;;;;12.02;100.00;102016.22;4990280;28;20053;-76
2023/01/05 11:22:32;;;;;;;0.10;0.10;;;;;;;12.01;100.00;102018.03;4968809;28;20049;-77
2023/01/05 11:25:14;;;;;;;0.10;0.10;;;;;;;11.94;100.00;102017.53;4981780;28;20085;-78
2023/01/05 11:27:39;;;;;;;0.10;0.10;;;;;;;11.60;100.00;101982.03;4978294;28;20041;-78
2023/01/05 11:30:13;;;;;;;0.20;0.20;;;;;;;11.85;100.00;102020.81;4977743;28;20030;-78
2023/01/05 11:32:42;;;;;;;0.10;0.10;;;;;;;11.55;100.00;101990.41;4975251;28;20058;-77
2023/01/05 11:35:24;;;;;;;0.20;0.20;;;;;;;11.36;100.00;101981.78;4987536;28;20034;-76
2023/01/05 11:37:49;;;;;;;0.10;0.10;;;;;;;11.49;100.00;102001.56;4973211;28;20030;-75
2023/01/05 11:40:17;;;;;;;0.10;0.10;;;;;;;11.66;100.00;102008.56;4973654;28;20792;-77
2023/01/05 11:42:43;;;;;;;0.17;0.17;;;;;;;11.66;100.00;102003.16;4978108;28;20305;-75
2023/01/05 11:45:23;;;;;;;0.10;0.10;;;;;;;11.78;100.00;101979.13;4964809;28;20480;-76
2023/01/05 11:47:57;;;;;;;0.10;0.10;;;;;;;11.45;100.00;101986.56;4974415;28;20027;-76
2023/01/05 11:50:27;;;;;;;0.20;0.20;;;;;;;11.91;100.00;101990.81;4966372;28;20026;-76
2023/01/05 11:52:58;;;;;;;0.20;0.20;;;;;;;13.00;100.00;101986.28;4988780;28;20112;-77
2023/01/05 11:55:40;;;;;;;0.20;0.20;;;;;;;14.38;96.36;101996.13;4984996;28;20034;-78
2023/01/05 11:58:23;;;;;;;0.15;0.15;;;;;;;14.13;96.79;102012.47;4966407;28;20061;-75
2023/01/05 12:01:20;;;;;;;0.10;0.10;;;;;;;13.16;100.00;102000.41;4983235;28;20036;-75
2023/01/05 12:04:14;;;;;;;0.10;0.10;;;;;;;12.52;100.00;102006.59;4981652;28;20066;-75